Terminal Aerodrome Forecast
Issued by NWS

Home | Current Version | Previous Version | Text Only | Print | Product List | Glossary On
Versions: 1 2 3 4 5 6 7 8 9 10 11 12 13 14 15 16
000
FTUS42 KFFC 311730
TAFRYY
TAF
KRYY 311730Z 3118/0118 VRB03KT P6SM SCT120
     FM010400 14006KT P6SM OVC120
     FM011000 13006KT P6SM BKN025=

USA.gov is the U.S. government's official web portal to all federal, state and local government web resources and services.